Řízení letového provozu České republiky
Letiste: LKPR Aktualizace: 22.07.2019 14:38:27  UTC
 METAR LKPR 22.07. 14:30 ...
METAR LKPR 221430Z 31009KT 270V350 CAVOK 28/09 Q1023 NOSIG RMK REG QNH 1020=
 TAF LKPR 22.07. 11:00 ...
TAF LKPR 221100Z 2212/2318 33006KT CAVOK      TEMPO 2212/2218 25012KT 9999 SCT040      TEMPO 2312/2318 01012G22KT=